createdAt,value
2023-01-27T00:00:29.684Z,-2.13
2023-01-27T00:02:56.465Z,-2.23
2023-01-27T00:05:24.033Z,-2.06
2023-01-27T00:07:50.606Z,-2.22
2023-01-27T00:10:19.846Z,-2.08
2023-01-27T00:13:06.108Z,-2.05
2023-01-27T00:15:34.557Z,-2.04
2023-01-27T00:18:01.673Z,-1.99
2023-01-27T00:20:47.245Z,-1.98
2023-01-27T00:23:41.189Z,-1.91
2023-01-27T00:26:10.180Z,-1.94
2023-01-27T00:28:37.934Z,-1.91
2023-01-27T00:31:05.076Z,-1.98
2023-01-27T00:33:32.097Z,-2.00
2023-01-27T00:35:59.956Z,-1.98
2023-01-27T00:38:28.134Z,-2.13
2023-01-27T00:41:13.903Z,-2.17
2023-01-27T00:43:40.571Z,-2.20
2023-01-27T00:46:07.825Z,-2.28
2023-01-27T00:48:34.725Z,-2.11
2023-01-27T00:51:01.755Z,-2.12
2023-01-27T00:53:28.680Z,-2.27
2023-01-27T00:55:55.390Z,-2.37
2023-01-27T00:58:22.592Z,-2.28
2023-01-27T01:00:49.496Z,-2.15
2023-01-27T01:03:16.382Z,-2.25
2023-01-27T01:05:43.118Z,-2.25
2023-01-27T01:08:09.861Z,-2.23
2023-01-27T01:10:38.877Z,-2.13
2023-01-27T01:13:08.132Z,-2.22
2023-01-27T01:15:38.920Z,-2.27
2023-01-27T01:18:06.141Z,-2.22
2023-01-27T01:20:37.686Z,-2.28
2023-01-27T01:23:05.364Z,-2.35
2023-01-27T01:25:32.196Z,-2.36
2023-01-27T01:27:58.940Z,-2.32
2023-01-27T01:30:27.512Z,-2.32
2023-01-27T01:32:54.898Z,-2.38
2023-01-27T01:35:22.816Z,-2.35
2023-01-27T01:37:49.564Z,-2.33
2023-01-27T01:40:16.259Z,-2.35
2023-01-27T01:42:57.800Z,-2.32
2023-01-27T01:45:33.928Z,-2.39
2023-01-27T01:48:04.999Z,-2.41
2023-01-27T01:50:32.210Z,-2.46
2023-01-27T01:53:00.255Z,-2.44
2023-01-27T01:55:27.275Z,-2.38
2023-01-27T01:57:54.201Z,-2.41
2023-01-27T02:00:20.937Z,-2.31
2023-01-27T02:02:48.786Z,-2.43
2023-01-27T02:05:29.937Z,-2.38
2023-01-27T02:08:13.437Z,-2.41
2023-01-27T02:10:40.147Z,-2.32
2023-01-27T02:13:06.899Z,-2.24
2023-01-27T02:15:33.744Z,-2.20
2023-01-27T02:18:00.977Z,-2.32
2023-01-27T02:20:47.923Z,-2.26
2023-01-27T02:23:39.412Z,-2.19
2023-01-27T02:26:08.940Z,-2.20
2023-01-27T02:28:35.682Z,-2.11
2023-01-27T02:31:02.773Z,-2.08
2023-01-27T02:33:29.734Z,-2.15
2023-01-27T02:36:01.907Z,-2.14
2023-01-27T02:38:31.845Z,-2.13
2023-01-27T02:41:05.066Z,-2.11
2023-01-27T02:43:31.758Z,-2.25
2023-01-27T02:45:58.492Z,-2.29
2023-01-27T02:48:25.229Z,-2.24
2023-01-27T02:50:51.982Z,-2.16
2023-01-27T02:53:18.639Z,-2.14
2023-01-27T02:55:45.329Z,-2.13
2023-01-27T02:58:12.069Z,-2.11
2023-01-27T03:00:38.806Z,-2.11
2023-01-27T03:03:05.613Z,-2.14
2023-01-27T03:05:32.301Z,-2.15
2023-01-27T03:07:59.012Z,-2.18
2023-01-27T03:10:25.786Z,-2.18
2023-01-27T03:12:52.584Z,-2.28
2023-01-27T03:15:37.903Z,-2.39
2023-01-27T03:18:16.345Z,-2.32
2023-01-27T03:20:48.216Z,-2.35
2023-01-27T03:23:16.930Z,-2.33
2023-01-27T03:25:48.473Z,-2.47
2023-01-27T03:28:15.609Z,-2.47
2023-01-27T03:30:42.506Z,-2.48
2023-01-27T03:33:09.355Z,-2.51
2023-01-27T03:35:46.651Z,-2.45
2023-01-27T03:38:33.792Z,-2.29
2023-01-27T03:41:22.554Z,-2.32
2023-01-27T03:44:08.021Z,-2.22
2023-01-27T03:46:34.754Z,-2.21
2023-01-27T03:49:01.566Z,-2.25
2023-01-27T03:51:28.363Z,-2.25
2023-01-27T03:53:55.113Z,-2.31
2023-01-27T03:56:22.551Z,-2.39
2023-01-27T03:58:50.744Z,-2.33
2023-01-27T04:01:22.125Z,-2.39
2023-01-27T04:04:08.754Z,-2.32
2023-01-27T04:07:14.143Z,-2.31
2023-01-27T04:09:41.003Z,-2.32
2023-01-27T04:12:08.247Z,-2.40
2023-01-27T04:14:42.256Z,-2.39
2023-01-27T04:17:17.190Z,-2.50
2023-01-27T04:19:44.045Z,-2.45
2023-01-27T04:22:12.008Z,-2.57
2023-01-27T04:24:38.856Z,-2.63
2023-01-27T04:27:11.649Z,-2.63
2023-01-27T04:29:43.183Z,-2.54
2023-01-27T04:32:12.156Z,-2.50
2023-01-27T04:34:39.485Z,-2.42
2023-01-27T04:37:07.774Z,-2.39
2023-01-27T04:39:35.010Z,-2.32
2023-01-27T04:42:01.783Z,-2.25
2023-01-27T04:44:28.575Z,-2.25
2023-01-27T04:46:55.341Z,-2.31
2023-01-27T04:49:22.612Z,-2.30
2023-01-27T04:51:49.433Z,-2.37
2023-01-27T04:54:16.242Z,-2.41
2023-01-27T04:56:55.499Z,-2.45
2023-01-27T04:59:22.304Z,-2.46
2023-01-27T05:01:49.199Z,-2.50
2023-01-27T05:04:15.963Z,-2.48
2023-01-27T05:06:42.736Z,-2.51
2023-01-27T05:09:10.094Z,-2.56
2023-01-27T05:11:36.805Z,-2.53
2023-01-27T05:14:03.671Z,-2.59
2023-01-27T05:16:30.482Z,-2.51
2023-01-27T05:18:57.449Z,-2.47
2023-01-27T05:21:28.348Z,-2.56
2023-01-27T05:23:55.304Z,-2.55
2023-01-27T05:26:25.014Z,-2.55
2023-01-27T05:28:52.782Z,-2.55
2023-01-27T05:31:21.908Z,-2.65
2023-01-27T05:33:53.592Z,-2.63
2023-01-27T05:36:22.174Z,-2.66
2023-01-27T05:38:49.433Z,-2.76
2023-01-27T05:41:17.617Z,-2.68
2023-01-27T05:43:46.354Z,-2.63
2023-01-27T05:46:14.269Z,-2.57
2023-01-27T05:48:52.768Z,-2.63
2023-01-27T05:51:21.741Z,-2.61
2023-01-27T05:53:49.235Z,-2.65
2023-01-27T05:56:18.877Z,-2.73
2023-01-27T05:58:45.777Z,-2.69
2023-01-27T06:01:21.138Z,-2.63
2023-01-27T06:03:48.242Z,-2.63
2023-01-27T06:06:17.481Z,-2.56
2023-01-27T06:08:45.785Z,-2.52
2023-01-27T06:11:12.628Z,-2.50
2023-01-27T06:13:39.496Z,-2.48
2023-01-27T06:16:09.186Z,-2.52
2023-01-27T06:18:36.558Z,-2.52
2023-01-27T06:21:04.825Z,-2.53
2023-01-27T06:23:31.891Z,-2.55
2023-01-27T06:26:03.696Z,-2.60
2023-01-27T06:28:30.640Z,-2.70
2023-01-27T06:31:08.032Z,-2.74
2023-01-27T06:33:35.220Z,-2.70
2023-01-27T06:36:16.609Z,-2.66
2023-01-27T06:38:43.678Z,-2.72
2023-01-27T06:41:10.797Z,-2.67
2023-01-27T06:43:37.799Z,-2.63
2023-01-27T06:46:06.043Z,-2.65
2023-01-27T06:48:33.428Z,-2.75
2023-01-27T06:51:00.393Z,-2.73
2023-01-27T06:53:27.457Z,-2.69
2023-01-27T06:55:59.014Z,-2.71
2023-01-27T06:58:26.051Z,-2.73
2023-01-27T07:00:52.910Z,-2.72
2023-01-27T07:03:20.118Z,-2.58
2023-01-27T07:05:46.915Z,-2.52
2023-01-27T07:08:13.763Z,-2.38
2023-01-27T07:10:40.795Z,-2.35
2023-01-27T07:13:11.435Z,-2.36
2023-01-27T07:15:38.558Z,-2.33
2023-01-27T07:18:05.557Z,-2.29
2023-01-27T07:20:33.150Z,-2.21
2023-01-27T07:23:01.133Z,-2.15
2023-01-27T07:25:29.014Z,-2.15
2023-01-27T07:27:58.376Z,-2.12
2023-01-27T07:30:25.842Z,-2.11
2023-01-27T07:32:52.843Z,-2.12
2023-01-27T07:35:19.674Z,-2.05
2023-01-27T07:37:46.428Z,-1.99
2023-01-27T07:40:16.870Z,-1.89
2023-01-27T07:42:43.910Z,-1.96
2023-01-27T07:45:10.943Z,-1.94
2023-01-27T07:47:37.758Z,-2.03
2023-01-27T07:50:04.775Z,-2.03
2023-01-27T07:52:31.640Z,-2.04
2023-01-27T07:54:58.372Z,-1.96
2023-01-27T07:57:25.114Z,-1.89
2023-01-27T07:59:55.759Z,-1.85
2023-01-27T08:02:23.836Z,-1.94
2023-01-27T08:04:53.400Z,-1.77
2023-01-27T08:07:21.039Z,-1.88
2023-01-27T08:09:47.967Z,-2.05
2023-01-27T08:12:14.798Z,-1.99
2023-01-27T08:14:41.509Z,-2.11
2023-01-27T08:17:08.363Z,-2.08
2023-01-27T08:19:35.037Z,-2.23
2023-01-27T08:22:01.984Z,-2.13
2023-01-27T08:24:28.824Z,-2.04
2023-01-27T08:26:55.958Z,-1.90
2023-01-27T08:29:22.711Z,-1.93
2023-01-27T08:31:49.588Z,-1.78
2023-01-27T08:34:17.192Z,-1.81
2023-01-27T08:36:44.154Z,-1.81
2023-01-27T08:39:11.662Z,-1.78
2023-01-27T08:41:39.026Z,-1.95
2023-01-27T08:44:07.195Z,-2.03
2023-01-27T08:46:34.297Z,-1.95
2023-01-27T08:49:01.063Z,-1.93
2023-01-27T08:51:28.457Z,-1.92
2023-01-27T08:53:55.236Z,-1.81
2023-01-27T08:56:22.011Z,-1.79
2023-01-27T08:58:48.973Z,-1.76
2023-01-27T09:01:16.694Z,-1.76
2023-01-27T09:03:43.531Z,-1.53
2023-01-27T09:06:11.748Z,-1.55
2023-01-27T09:08:39.187Z,-1.43
2023-01-27T09:11:11.455Z,-1.23
2023-01-27T09:13:38.376Z,-1.18
2023-01-27T09:16:05.514Z,-1.05
2023-01-27T09:18:32.747Z,-1.22
2023-01-27T09:21:04.511Z,-1.16
2023-01-27T09:23:31.652Z,-0.86
2023-01-27T09:25:58.510Z,-0.93
2023-01-27T09:28:25.309Z,-1.03
2023-01-27T09:30:52.092Z,-1.07
2023-01-27T09:33:18.929Z,-1.01
2023-01-27T09:35:59.907Z,-1.17
2023-01-27T09:38:29.038Z,-0.95
2023-01-27T09:41:08.367Z,-0.91
2023-01-27T09:44:09.890Z,-0.66
2023-01-27T09:47:10.643Z,-0.56
2023-01-27T09:49:53.889Z,-0.59
2023-01-27T09:52:47.152Z,-0.32
2023-01-27T09:55:27.828Z,-0.58
2023-01-27T09:57:57.481Z,-0.55
2023-01-27T10:00:33.105Z,-0.45
2023-01-27T10:03:18.529Z,-0.51
2023-01-27T10:06:04.136Z,-0.72
2023-01-27T10:08:48.781Z,-0.35
2023-01-27T10:11:37.515Z,-0.78
2023-01-27T10:14:17.791Z,-0.76
2023-01-27T10:17:19.800Z,-0.57
2023-01-27T10:20:05.773Z,-0.54
2023-01-27T10:23:03.819Z,-0.52
2023-01-27T10:25:48.751Z,-0.24
2023-01-27T10:28:18.571Z,-0.24
2023-01-27T10:31:27.359Z,-0.46
2023-01-27T10:33:55.155Z,-0.28
2023-01-27T10:36:41.199Z,-0.25
2023-01-27T10:39:26.748Z,-0.14
2023-01-27T10:42:28.831Z,-0.05
2023-01-27T10:45:16.669Z,-0.11
2023-01-27T10:47:46.290Z,-0.22
2023-01-27T10:50:20.369Z,-0.25
2023-01-27T10:53:04.407Z,0.10
2023-01-27T10:55:40.781Z,0.11
2023-01-27T10:58:17.496Z,0.13
2023-01-27T11:01:20.400Z,0.21
2023-01-27T11:03:41.325Z,0.33
2023-01-27T11:06:12.679Z,-0.15
2023-01-27T11:08:41.469Z,0.19
2023-01-27T11:11:28.137Z,0.32
2023-01-27T11:14:04.128Z,0.19
2023-01-27T11:16:36.129Z,0.23
2023-01-27T11:19:14.688Z,0.26
2023-01-27T11:21:41.886Z,0.01
2023-01-27T11:24:27.443Z,0.00
2023-01-27T11:27:00.988Z,0.09
2023-01-27T11:29:30.916Z,0.27
2023-01-27T11:32:01.410Z,0.23
2023-01-27T11:34:28.188Z,0.37
2023-01-27T11:36:54.975Z,0.54
2023-01-27T11:39:21.837Z,0.61
2023-01-27T11:41:53.826Z,0.62
2023-01-27T11:44:24.538Z,0.66
2023-01-27T11:46:52.068Z,0.76
2023-01-27T11:49:31.389Z,0.72
2023-01-27T11:52:06.444Z,0.63
2023-01-27T11:54:42.213Z,0.55
2023-01-27T11:57:19.163Z,0.48
2023-01-27T11:59:46.067Z,0.53
2023-01-27T12:02:31.159Z,0.58
2023-01-27T12:05:04.164Z,0.65
2023-01-27T12:07:56.783Z,0.68
2023-01-27T12:10:35.598Z,0.64
2023-01-27T12:13:10.281Z,0.68
2023-01-27T12:15:38.146Z,0.70
2023-01-27T12:18:15.815Z,0.26
2023-01-27T12:20:45.006Z,0.43
2023-01-27T12:23:27.849Z,0.53
2023-01-27T12:26:03.948Z,0.39
2023-01-27T12:28:33.774Z,0.65
2023-01-27T12:31:27.833Z,0.62
2023-01-27T12:34:06.948Z,0.61
2023-01-27T12:36:43.368Z,0.57
2023-01-27T12:39:39.540Z,0.69
2023-01-27T12:42:06.757Z,0.65
2023-01-27T12:44:42.009Z,0.67
2023-01-27T12:47:23.475Z,0.44
2023-01-27T12:49:50.307Z,0.36
2023-01-27T12:52:21.784Z,0.32
2023-01-27T12:54:51.338Z,0.53
2023-01-27T12:57:21.137Z,0.45
2023-01-27T12:59:53.029Z,0.60
2023-01-27T13:02:24.730Z,0.34
2023-01-27T13:04:59.888Z,0.37
2023-01-27T13:07:45.768Z,0.14
2023-01-27T13:10:22.401Z,0.22
2023-01-27T13:12:49.352Z,0.21
2023-01-27T13:15:18.887Z,0.35
2023-01-27T13:17:59.426Z,0.39
2023-01-27T13:20:42.784Z,0.43
2023-01-27T13:23:19.565Z,0.48
2023-01-27T13:26:04.792Z,0.38
2023-01-27T13:28:54.361Z,0.51
2023-01-27T13:31:43.468Z,0.42
2023-01-27T13:34:25.105Z,0.43
2023-01-27T13:37:03.649Z,0.38
2023-01-27T13:40:06.371Z,0.38
2023-01-27T13:42:41.289Z,0.33
2023-01-27T13:45:19.128Z,0.18
2023-01-27T13:48:05.315Z,-0.16
2023-01-27T13:50:36.416Z,-0.31
2023-01-27T13:53:04.311Z,-0.39
2023-01-27T13:56:08.647Z,-0.28
2023-01-27T13:59:06.488Z,-0.08
2023-01-27T14:01:42.437Z,-0.01
2023-01-27T14:04:39.090Z,-0.06
2023-01-27T14:07:27.604Z,-0.08
2023-01-27T14:10:03.879Z,-0.30
2023-01-27T14:12:38.169Z,-0.11
2023-01-27T14:15:26.477Z,-0.09
2023-01-27T14:18:02.690Z,-0.15
2023-01-27T14:20:59.684Z,-0.07
2023-01-27T14:23:41.055Z,-0.13
2023-01-27T14:26:33.178Z,-0.14
2023-01-27T14:29:31.165Z,-0.08
2023-01-27T14:32:17.358Z,0.02
2023-01-27T14:34:56.364Z,-0.06
2023-01-27T14:37:28.056Z,-0.41
2023-01-27T14:40:12.162Z,-0.29
2023-01-27T14:43:11.681Z,-0.55
2023-01-27T14:45:41.246Z,-0.60
2023-01-27T14:48:13.978Z,-0.44
2023-01-27T14:50:50.185Z,-0.36
2023-01-27T14:53:38.599Z,-0.48
2023-01-27T14:56:25.541Z,-0.60
2023-01-27T14:58:57.213Z,-0.64
2023-01-27T15:01:36.870Z,-0.62
2023-01-27T15:04:12.583Z,-0.67
2023-01-27T15:07:03.792Z,-0.68
2023-01-27T15:09:48.759Z,-0.64
2023-01-27T15:12:27.348Z,-0.60
2023-01-27T15:14:55.107Z,-0.42
2023-01-27T15:17:54.165Z,-0.61
2023-01-27T15:20:30.875Z,-0.55
2023-01-27T15:23:12.344Z,-0.67
2023-01-27T15:25:43.522Z,-0.70
2023-01-27T15:28:15.245Z,-0.81
2023-01-27T15:31:17.190Z,-0.81
2023-01-27T15:34:15.683Z,-0.76
2023-01-27T15:37:02.525Z,-0.83
2023-01-27T15:39:40.876Z,-0.99
2023-01-27T15:42:11.498Z,-1.02
2023-01-27T15:45:03.006Z,-0.99
2023-01-27T15:47:32.674Z,-0.99
2023-01-27T15:50:20.462Z,-1.02
2023-01-27T15:52:49.588Z,-1.09
2023-01-27T15:55:33.670Z,-0.99
2023-01-27T15:58:26.686Z,-0.98
2023-01-27T16:00:55.610Z,-0.95
2023-01-27T16:03:37.953Z,-1.02
2023-01-27T16:06:09.703Z,-1.15
2023-01-27T16:08:52.559Z,-0.98
2023-01-27T16:11:28.425Z,-1.05
2023-01-27T16:14:11.629Z,-1.01
2023-01-27T16:16:50.785Z,-1.21
2023-01-27T16:19:41.510Z,-1.31
2023-01-27T16:22:19.035Z,-1.21
2023-01-27T16:25:04.377Z,-1.32
2023-01-27T16:27:52.239Z,-1.26
2023-01-27T16:30:25.705Z,-1.42
2023-01-27T16:33:04.375Z,-1.44
2023-01-27T16:35:41.080Z,-1.44
2023-01-27T16:38:20.082Z,-1.43
2023-01-27T16:40:51.546Z,-1.46
2023-01-27T16:43:21.706Z,-1.40
2023-01-27T16:45:50.863Z,-1.48
2023-01-27T16:48:35.931Z,-1.46
2023-01-27T16:51:23.459Z,-1.49
2023-01-27T16:53:52.282Z,-1.47
2023-01-27T16:56:27.831Z,-1.47
2023-01-27T16:59:02.697Z,-1.49
2023-01-27T17:01:54.276Z,-1.56
2023-01-27T17:04:28.628Z,-1.73
2023-01-27T17:07:04.671Z,-1.75
2023-01-27T17:09:32.775Z,-1.62
2023-01-27T17:11:59.815Z,-1.58
2023-01-27T17:14:46.794Z,-1.67
2023-01-27T17:17:19.399Z,-1.72
2023-01-27T17:19:52.207Z,-1.68
2023-01-27T17:22:22.789Z,-1.79
2023-01-27T17:24:56.974Z,-1.73
2023-01-27T17:27:30.266Z,-1.77
2023-01-27T17:30:04.688Z,-1.82
2023-01-27T17:32:34.642Z,-1.77
2023-01-27T17:35:05.502Z,-1.70
2023-01-27T17:37:32.828Z,-1.54
2023-01-27T17:40:01.687Z,-1.48
2023-01-27T17:42:33.526Z,-1.39
2023-01-27T17:45:28.194Z,-1.50
2023-01-27T17:47:58.923Z,-1.58
2023-01-27T17:50:36.540Z,-1.67
2023-01-27T17:53:06.808Z,-1.88
2023-01-27T17:55:33.720Z,-1.81
2023-01-27T17:58:11.498Z,-1.83
2023-01-27T18:00:40.363Z,-1.84
2023-01-27T18:03:14.740Z,-1.85
2023-01-27T18:05:44.732Z,-1.94
2023-01-27T18:08:11.945Z,-2.06
2023-01-27T18:10:41.383Z,-1.99
2023-01-27T18:13:28.379Z,-1.99
2023-01-27T18:16:00.908Z,-2.01
2023-01-27T18:18:32.825Z,-2.06
2023-01-27T18:20:59.604Z,-1.99
2023-01-27T18:23:32.425Z,-1.82
2023-01-27T18:26:19.160Z,-1.79
2023-01-27T18:28:50.176Z,-1.85
2023-01-27T18:31:23.988Z,-1.90
2023-01-27T18:34:20.239Z,-1.82
2023-01-27T18:37:08.723Z,-1.80
2023-01-27T18:39:38.048Z,-1.91
2023-01-27T18:42:13.266Z,-1.92
2023-01-27T18:44:40.068Z,-1.97
2023-01-27T18:47:19.061Z,-1.98
2023-01-27T18:49:52.041Z,-1.88
2023-01-27T18:52:18.862Z,-1.84
2023-01-27T18:54:45.684Z,-1.86
2023-01-27T18:57:12.539Z,-1.89
2023-01-27T18:59:40.040Z,-1.83
2023-01-27T19:02:15.390Z,-1.81
2023-01-27T19:04:42.561Z,-1.81
2023-01-27T19:07:16.858Z,-1.73
2023-01-27T19:09:44.904Z,-1.80
2023-01-27T19:12:11.799Z,-1.78
2023-01-27T19:14:41.309Z,-1.79
2023-01-27T19:17:17.397Z,-1.87
2023-01-27T19:19:44.837Z,-2.01
2023-01-27T19:22:19.654Z,-1.93
2023-01-27T19:24:46.912Z,-2.00
2023-01-27T19:27:21.637Z,-1.90
2023-01-27T19:29:48.786Z,-1.94
2023-01-27T19:32:15.612Z,-1.92
2023-01-27T19:34:42.727Z,-1.99
2023-01-27T19:37:18.548Z,-1.94
2023-01-27T19:39:47.113Z,-1.81
2023-01-27T19:42:16.676Z,-1.81
2023-01-27T19:44:43.668Z,-1.94
2023-01-27T19:47:12.935Z,-1.94
2023-01-27T19:49:40.209Z,-1.89
2023-01-27T19:52:07.149Z,-1.88
2023-01-27T19:54:34.661Z,-1.82
2023-01-27T19:57:01.942Z,-1.79
2023-01-27T19:59:28.933Z,-1.84
2023-01-27T20:01:57.073Z,-2.12
2023-01-27T20:04:24.018Z,-1.94
2023-01-27T20:06:51.611Z,-1.77
2023-01-27T20:09:18.466Z,-1.70
2023-01-27T20:11:46.226Z,-1.97
2023-01-27T20:14:15.831Z,-1.99
2023-01-27T20:16:42.986Z,-1.99
2023-01-27T20:19:11.757Z,-1.96
2023-01-27T20:21:38.536Z,-2.00
2023-01-27T20:24:05.717Z,-2.09
2023-01-27T20:26:33.131Z,-2.00
2023-01-27T20:29:00.122Z,-2.07
2023-01-27T20:31:27.028Z,-2.08
2023-01-27T20:33:53.849Z,-2.08
2023-01-27T20:36:22.636Z,-2.05
2023-01-27T20:38:49.846Z,-2.09
2023-01-27T20:41:20.380Z,-1.99
2023-01-27T20:43:47.344Z,-1.94
2023-01-27T20:46:18.558Z,-2.07
2023-01-27T20:48:45.336Z,-2.01
2023-01-27T20:51:14.475Z,-1.93
2023-01-27T20:53:45.611Z,-1.92
2023-01-27T20:56:31.096Z,-1.92
2023-01-27T20:58:57.890Z,-2.06
2023-01-27T21:01:25.156Z,-2.04
2023-01-27T21:03:52.167Z,-1.95
2023-01-27T21:06:20.187Z,-1.92
2023-01-27T21:08:48.341Z,-1.97
2023-01-27T21:11:18.358Z,-1.94
2023-01-27T21:13:45.370Z,-1.90
2023-01-27T21:16:13.872Z,-1.94
2023-01-27T21:18:41.004Z,-1.97
2023-01-27T21:21:07.675Z,-1.90
2023-01-27T21:23:35.074Z,-1.92
2023-01-27T21:26:07.322Z,-1.91
2023-01-27T21:28:34.074Z,-1.93
2023-01-27T21:31:08.609Z,-2.05
2023-01-27T21:33:36.435Z,-1.98
2023-01-27T21:36:04.077Z,-1.89
2023-01-27T21:38:31.892Z,-1.89
2023-01-27T21:41:10.963Z,-1.85
2023-01-27T21:43:56.417Z,-1.85
2023-01-27T21:46:23.449Z,-1.83
2023-01-27T21:48:50.258Z,-1.86
2023-01-27T21:51:16.989Z,-1.82
2023-01-27T21:53:43.572Z,-1.81
2023-01-27T21:56:11.149Z,-1.86
2023-01-27T21:58:37.806Z,-1.83
2023-01-27T22:01:08.288Z,-1.82
2023-01-27T22:03:35.341Z,-1.86
2023-01-27T22:06:09.256Z,-1.87
2023-01-27T22:08:36.859Z,-2.05
2023-01-27T22:11:09.120Z,-2.13
2023-01-27T22:13:37.819Z,-1.99
2023-01-27T22:16:04.913Z,-1.98
2023-01-27T22:18:31.688Z,-2.10
2023-01-27T22:21:01.264Z,-2.17
2023-01-27T22:23:28.063Z,-2.23
2023-01-27T22:25:54.888Z,-2.10
2023-01-27T22:28:23.219Z,-2.02
2023-01-27T22:30:50.516Z,-2.00
2023-01-27T22:33:17.261Z,-2.03
2023-01-27T22:35:44.082Z,-2.08
2023-01-27T22:38:10.896Z,-2.12
2023-01-27T22:40:37.576Z,-2.17
2023-01-27T22:43:09.397Z,-2.13
2023-01-27T22:45:39.779Z,-2.12
2023-01-27T22:48:09.002Z,-2.01
2023-01-27T22:50:36.743Z,-1.98
2023-01-27T22:53:05.498Z,-2.08
2023-01-27T22:55:32.733Z,-2.07
2023-01-27T22:57:59.522Z,-2.19
2023-01-27T23:00:26.195Z,-2.22
2023-01-27T23:02:52.903Z,-2.25
2023-01-27T23:05:19.665Z,-2.23
2023-01-27T23:07:47.612Z,-2.31
2023-01-27T23:10:14.676Z,-2.28
2023-01-27T23:12:41.380Z,-2.16
2023-01-27T23:15:08.481Z,-2.12
2023-01-27T23:17:35.114Z,-2.08
2023-01-27T23:20:02.131Z,-2.08
2023-01-27T23:22:28.921Z,-2.01
2023-01-27T23:24:55.622Z,-1.99
2023-01-27T23:27:22.278Z,-2.02
2023-01-27T23:29:48.983Z,-2.01
2023-01-27T23:32:15.769Z,-2.03
2023-01-27T23:34:42.590Z,-1.96
2023-01-27T23:37:09.240Z,-1.98
2023-01-27T23:39:36.017Z,-1.95
2023-01-27T23:42:02.686Z,-1.93
2023-01-27T23:44:29.316Z,-1.95
2023-01-27T23:46:55.930Z,-1.99
2023-01-27T23:49:22.576Z,-2.13
2023-01-27T23:51:49.255Z,-2.03
2023-01-27T23:54:15.966Z,-2.16
2023-01-27T23:56:42.583Z,-2.20
2023-01-27T23:59:11.878Z,-2.21
